sensor_id;sensor_type;location;lat;lon;timestamp;P1;durP1;ratioP1;P2;durP2;ratioP2
69434;SDS011;56625;54.322;18.582;2023-04-25T00:00:23;5.40;;;2.00;;
69434;SDS011;56625;54.322;18.582;2023-04-25T00:03:11;5.40;;;1.90;;
69434;SDS011;56625;54.322;18.582;2023-04-25T00:05:39;5.60;;;1.60;;
69434;SDS011;56625;54.322;18.582;2023-04-25T00:08:07;6.10;;;1.80;;
69434;SDS011;56625;54.322;18.582;2023-04-25T00:10:36;5.80;;;1.50;;
69434;SDS011;56625;54.322;18.582;2023-04-25T00:13:03;5.60;;;1.80;;
69434;SDS011;56625;54.322;18.582;2023-04-25T00:15:32;5.40;;;1.50;;
69434;SDS011;56625;54.322;18.582;2023-04-25T00:17:59;5.20;;;1.50;;
69434;SDS011;56625;54.322;18.582;2023-04-25T00:20:27;4.00;;;1.40;;
69434;SDS011;56625;54.322;18.582;2023-04-25T00:22:55;3.70;;;1.20;;
69434;SDS011;56625;54.322;18.582;2023-04-25T00:25:23;4.30;;;1.40;;
69434;SDS011;56625;54.322;18.582;2023-04-25T00:27:51;4.60;;;1.40;;
69434;SDS011;56625;54.322;18.582;2023-04-25T00:30:19;6.70;;;2.00;;
69434;SDS011;56625;54.322;18.582;2023-04-25T00:32:46;5.40;;;1.50;;
69434;SDS011;56625;54.322;18.582;2023-04-25T00:35:15;6.00;;;1.90;;
69434;SDS011;56625;54.322;18.582;2023-04-25T00:37:43;5.30;;;2.00;;
69434;SDS011;56625;54.322;18.582;2023-04-25T00:40:11;5.40;;;1.80;;
69434;SDS011;56625;54.322;18.582;2023-04-25T00:42:40;5.30;;;2.10;;
69434;SDS011;56625;54.322;18.582;2023-04-25T00:45:12;5.20;;;1.90;;
69434;SDS011;56625;54.322;18.582;2023-04-25T00:47:42;6.30;;;2.40;;
69434;SDS011;56625;54.322;18.582;2023-04-25T00:50:12;6.30;;;2.80;;
69434;SDS011;56625;54.322;18.582;2023-04-25T00:52:41;6.90;;;2.90;;
69434;SDS011;56625;54.322;18.582;2023-04-25T00:55:12;7.20;;;2.90;;
69434;SDS011;56625;54.322;18.582;2023-04-25T00:57:41;6.60;;;3.10;;
69434;SDS011;56625;54.322;18.582;2023-04-25T01:00:10;8.30;;;2.80;;
69434;SDS011;56625;54.322;18.582;2023-04-25T01:02:39;6.70;;;2.40;;
69434;SDS011;56625;54.322;18.582;2023-04-25T01:05:10;6.10;;;2.70;;
69434;SDS011;56625;54.322;18.582;2023-04-25T01:07:39;6.80;;;2.60;;
69434;SDS011;56625;54.322;18.582;2023-04-25T01:10:08;6.60;;;2.70;;
69434;SDS011;56625;54.322;18.582;2023-04-25T01:12:37;6.90;;;2.50;;
69434;SDS011;56625;54.322;18.582;2023-04-25T01:15:05;5.80;;;2.30;;
69434;SDS011;56625;54.322;18.582;2023-04-25T01:17:34;5.30;;;2.10;;
69434;SDS011;56625;54.322;18.582;2023-04-25T01:20:04;6.00;;;2.30;;
69434;SDS011;56625;54.322;18.582;2023-04-25T01:22:33;6.20;;;2.10;;
69434;SDS011;56625;54.322;18.582;2023-04-25T01:25:01;6.10;;;2.40;;
69434;SDS011;56625;54.322;18.582;2023-04-25T01:27:29;6.50;;;2.30;;
69434;SDS011;56625;54.322;18.582;2023-04-25T01:29:59;6.10;;;2.00;;
69434;SDS011;56625;54.322;18.582;2023-04-25T01:32:27;5.10;;;2.00;;
69434;SDS011;56625;54.322;18.582;2023-04-25T01:34:55;5.50;;;2.50;;
69434;SDS011;56625;54.322;18.582;2023-04-25T01:37:23;4.70;;;1.60;;
69434;SDS011;56625;54.322;18.582;2023-04-25T01:39:51;5.80;;;1.90;;
69434;SDS011;56625;54.322;18.582;2023-04-25T01:42:20;6.30;;;1.90;;
69434;SDS011;56625;54.322;18.582;2023-04-25T01:44:47;5.60;;;2.10;;
69434;SDS011;56625;54.322;18.582;2023-04-25T01:47:15;5.80;;;1.90;;
69434;SDS011;56625;54.322;18.582;2023-04-25T01:49:43;5.40;;;1.80;;
69434;SDS011;56625;54.322;18.582;2023-04-25T01:52:11;4.60;;;1.50;;
69434;SDS011;56625;54.322;18.582;2023-04-25T01:54:40;5.00;;;1.70;;
69434;SDS011;56625;54.322;18.582;2023-04-25T01:57:11;5.40;;;1.60;;
69434;SDS011;56625;54.322;18.582;2023-04-25T01:59:40;5.00;;;1.70;;
69434;SDS011;56625;54.322;18.582;2023-04-25T02:02:09;4.70;;;1.60;;
69434;SDS011;56625;54.322;18.582;2023-04-25T02:04:37;6.80;;;1.80;;
69434;SDS011;56625;54.322;18.582;2023-04-25T02:07:05;4.50;;;1.80;;
69434;SDS011;56625;54.322;18.582;2023-04-25T02:09:33;4.60;;;1.70;;
69434;SDS011;56625;54.322;18.582;2023-04-25T02:12:01;5.70;;;1.80;;
69434;SDS011;56625;54.322;18.582;2023-04-25T02:14:29;5.70;;;2.00;;
69434;SDS011;56625;54.322;18.582;2023-04-25T02:16:57;5.60;;;1.90;;
69434;SDS011;56625;54.322;18.582;2023-04-25T02:19:26;5.50;;;1.90;;
69434;SDS011;56625;54.322;18.582;2023-04-25T02:21:54;5.30;;;1.90;;
69434;SDS011;56625;54.322;18.582;2023-04-25T02:24:22;5.30;;;1.70;;
69434;SDS011;56625;54.322;18.582;2023-04-25T02:26:50;4.90;;;1.80;;
69434;SDS011;56625;54.322;18.582;2023-04-25T02:29:18;4.90;;;1.50;;
69434;SDS011;56625;54.322;18.582;2023-04-25T02:31:45;4.90;;;1.70;;
69434;SDS011;56625;54.322;18.582;2023-04-25T02:34:13;4.70;;;2.00;;
69434;SDS011;56625;54.322;18.582;2023-04-25T02:36:41;5.10;;;2.00;;
69434;SDS011;56625;54.322;18.582;2023-04-25T02:39:09;5.90;;;2.40;;
69434;SDS011;56625;54.322;18.582;2023-04-25T02:41:38;5.30;;;1.90;;
69434;SDS011;56625;54.322;18.582;2023-04-25T02:44:06;6.00;;;2.40;;
69434;SDS011;56625;54.322;18.582;2023-04-25T02:46:33;4.80;;;2.10;;
69434;SDS011;56625;54.322;18.582;2023-04-25T02:49:06;4.80;;;1.90;;
69434;SDS011;56625;54.322;18.582;2023-04-25T02:51:34;5.70;;;1.80;;
69434;SDS011;56625;54.322;18.582;2023-04-25T02:54:02;5.20;;;1.70;;
69434;SDS011;56625;54.322;18.582;2023-04-25T02:56:30;5.50;;;1.70;;
69434;SDS011;56625;54.322;18.582;2023-04-25T02:58:58;5.30;;;2.10;;
69434;SDS011;56625;54.322;18.582;2023-04-25T03:01:26;6.20;;;2.70;;
69434;SDS011;56625;54.322;18.582;2023-04-25T03:03:54;5.40;;;2.00;;
69434;SDS011;56625;54.322;18.582;2023-04-25T03:06:22;5.80;;;2.50;;
69434;SDS011;56625;54.322;18.582;2023-04-25T03:08:50;5.20;;;1.90;;
69434;SDS011;56625;54.322;18.582;2023-04-25T03:11:18;5.30;;;2.20;;
69434;SDS011;56625;54.322;18.582;2023-04-25T03:13:47;4.70;;;1.90;;
69434;SDS011;56625;54.322;18.582;2023-04-25T03:16:16;4.80;;;1.90;;
69434;SDS011;56625;54.322;18.582;2023-04-25T03:18:44;4.50;;;1.80;;
69434;SDS011;56625;54.322;18.582;2023-04-25T03:21:12;5.50;;;1.90;;
69434;SDS011;56625;54.322;18.582;2023-04-25T03:23:39;5.70;;;1.90;;
69434;SDS011;56625;54.322;18.582;2023-04-25T03:26:08;4.80;;;2.00;;
69434;SDS011;56625;54.322;18.582;2023-04-25T03:28:35;5.30;;;2.10;;
69434;SDS011;56625;54.322;18.582;2023-04-25T03:31:03;5.10;;;2.20;;
69434;SDS011;56625;54.322;18.582;2023-04-25T03:33:31;5.40;;;2.10;;
69434;SDS011;56625;54.322;18.582;2023-04-25T03:35:59;5.00;;;2.30;;
69434;SDS011;56625;54.322;18.582;2023-04-25T03:38:27;5.20;;;2.20;;
69434;SDS011;56625;54.322;18.582;2023-04-25T03:40:55;5.40;;;2.50;;
69434;SDS011;56625;54.322;18.582;2023-04-25T03:43:24;6.30;;;3.00;;
69434;SDS011;56625;54.322;18.582;2023-04-25T03:45:51;7.60;;;2.80;;
69434;SDS011;56625;54.322;18.582;2023-04-25T03:48:19;5.70;;;2.20;;
69434;SDS011;56625;54.322;18.582;2023-04-25T03:50:50;6.70;;;2.90;;
69434;SDS011;56625;54.322;18.582;2023-04-25T03:53:18;8.70;;;3.00;;
69434;SDS011;56625;54.322;18.582;2023-04-25T03:55:45;6.40;;;2.60;;
69434;SDS011;56625;54.322;18.582;2023-04-25T03:58:13;6.50;;;2.10;;
69434;SDS011;56625;54.322;18.582;2023-04-25T04:00:41;6.90;;;2.80;;
69434;SDS011;56625;54.322;18.582;2023-04-25T04:03:09;5.30;;;2.00;;
69434;SDS011;56625;54.322;18.582;2023-04-25T04:05:38;5.80;;;2.20;;
69434;SDS011;56625;54.322;18.582;2023-04-25T04:08:08;6.30;;;2.40;;
69434;SDS011;56625;54.322;18.582;2023-04-25T04:10:35;7.30;;;3.30;;
69434;SDS011;56625;54.322;18.582;2023-04-25T04:13:03;8.00;;;3.00;;
69434;SDS011;56625;54.322;18.582;2023-04-25T04:15:31;7.20;;;2.80;;
69434;SDS011;56625;54.322;18.582;2023-04-25T04:18:00;6.70;;;2.40;;
69434;SDS011;56625;54.322;18.582;2023-04-25T04:20:30;6.60;;;2.50;;
69434;SDS011;56625;54.322;18.582;2023-04-25T04:22:58;6.70;;;2.80;;
69434;SDS011;56625;54.322;18.582;2023-04-25T04:25:26;6.10;;;2.40;;
69434;SDS011;56625;54.322;18.582;2023-04-25T04:27:54;6.80;;;2.50;;
69434;SDS011;56625;54.322;18.582;2023-04-25T04:30:23;5.90;;;1.60;;
69434;SDS011;56625;54.322;18.582;2023-04-25T04:32:51;6.30;;;2.50;;
69434;SDS011;56625;54.322;18.582;2023-04-25T04:35:20;6.60;;;2.60;;
69434;SDS011;56625;54.322;18.582;2023-04-25T04:37:48;8.10;;;2.70;;
69434;SDS011;56625;54.322;18.582;2023-04-25T04:40:16;7.50;;;2.60;;
69434;SDS011;56625;54.322;18.582;2023-04-25T04:42:44;5.30;;;2.00;;
69434;SDS011;56625;54.322;18.582;2023-04-25T04:45:15;7.20;;;2.70;;
69434;SDS011;56625;54.322;18.582;2023-04-25T04:47:43;6.20;;;2.40;;
69434;SDS011;56625;54.322;18.582;2023-04-25T04:50:12;6.10;;;2.30;;
69434;SDS011;56625;54.322;18.582;2023-04-25T04:52:40;6.30;;;2.70;;
69434;SDS011;56625;54.322;18.582;2023-04-25T04:55:08;6.10;;;2.60;;
69434;SDS011;56625;54.322;18.582;2023-04-25T04:57:36;7.50;;;3.00;;
69434;SDS011;56625;54.322;18.582;2023-04-25T05:00:06;6.50;;;2.80;;
69434;SDS011;56625;54.322;18.582;2023-04-25T05:02:38;7.20;;;2.60;;
69434;SDS011;56625;54.322;18.582;2023-04-25T05:05:07;7.50;;;2.50;;
69434;SDS011;56625;54.322;18.582;2023-04-25T05:07:35;6.60;;;2.80;;
69434;SDS011;56625;54.322;18.582;2023-04-25T05:10:04;7.10;;;3.00;;
69434;SDS011;56625;54.322;18.582;2023-04-25T05:12:34;7.10;;;2.30;;
69434;SDS011;56625;54.322;18.582;2023-04-25T05:15:04;7.40;;;3.00;;
69434;SDS011;56625;54.322;18.582;2023-04-25T05:17:32;5.90;;;2.00;;
69434;SDS011;56625;54.322;18.582;2023-04-25T05:20:00;6.30;;;2.40;;
69434;SDS011;56625;54.322;18.582;2023-04-25T05:22:29;6.20;;;2.20;;
69434;SDS011;56625;54.322;18.582;2023-04-25T05:24:57;6.80;;;2.30;;
69434;SDS011;56625;54.322;18.582;2023-04-25T05:27:25;6.20;;;2.40;;
69434;SDS011;56625;54.322;18.582;2023-04-25T05:29:53;6.60;;;2.20;;
69434;SDS011;56625;54.322;18.582;2023-04-25T05:32:21;5.60;;;1.60;;
69434;SDS011;56625;54.322;18.582;2023-04-25T05:34:49;7.20;;;1.90;;
69434;SDS011;56625;54.322;18.582;2023-04-25T05:37:17;5.00;;;1.80;;
69434;SDS011;56625;54.322;18.582;2023-04-25T05:39:46;5.30;;;1.80;;
69434;SDS011;56625;54.322;18.582;2023-04-25T05:42:14;6.50;;;2.40;;
69434;SDS011;56625;54.322;18.582;2023-04-25T05:44:42;4.80;;;1.60;;
69434;SDS011;56625;54.322;18.582;2023-04-25T05:47:10;6.80;;;1.90;;
69434;SDS011;56625;54.322;18.582;2023-04-25T05:49:39;7.00;;;2.30;;
69434;SDS011;56625;54.322;18.582;2023-04-25T05:52:07;4.90;;;1.60;;
69434;SDS011;56625;54.322;18.582;2023-04-25T05:54:35;5.80;;;1.90;;
69434;SDS011;56625;54.322;18.582;2023-04-25T05:57:03;6.40;;;1.90;;
69434;SDS011;56625;54.322;18.582;2023-04-25T05:59:31;5.10;;;1.20;;
69434;SDS011;56625;54.322;18.582;2023-04-25T06:01:59;10.30;;;1.80;;
69434;SDS011;56625;54.322;18.582;2023-04-25T06:04:28;6.10;;;2.00;;
69434;SDS011;56625;54.322;18.582;2023-04-25T06:06:57;8.60;;;2.30;;
69434;SDS011;56625;54.322;18.582;2023-04-25T06:09:34;5.70;;;1.60;;
69434;SDS011;56625;54.322;18.582;2023-04-25T06:12:02;4.90;;;1.50;;
69434;SDS011;56625;54.322;18.582;2023-04-25T06:14:33;5.90;;;1.70;;
69434;SDS011;56625;54.322;18.582;2023-04-25T06:17:02;6.50;;;2.00;;
69434;SDS011;56625;54.322;18.582;2023-04-25T06:19:36;7.00;;;1.90;;
69434;SDS011;56625;54.322;18.582;2023-04-25T06:22:04;5.60;;;1.80;;
69434;SDS011;56625;54.322;18.582;2023-04-25T06:24:32;5.80;;;1.70;;
69434;SDS011;56625;54.322;18.582;2023-04-25T06:27:00;8.80;;;2.20;;
69434;SDS011;56625;54.322;18.582;2023-04-25T06:29:28;8.40;;;1.90;;
69434;SDS011;56625;54.322;18.582;2023-04-25T06:31:56;6.10;;;1.80;;
69434;SDS011;56625;54.322;18.582;2023-04-25T06:34:24;6.30;;;1.80;;
69434;SDS011;56625;54.322;18.582;2023-04-25T06:36:52;4.20;;;1.20;;
69434;SDS011;56625;54.322;18.582;2023-04-25T06:39:20;4.30;;;1.00;;
69434;SDS011;56625;54.322;18.582;2023-04-25T06:41:51;5.80;;;1.70;;
69434;SDS011;56625;54.322;18.582;2023-04-25T06:44:18;5.90;;;1.70;;
69434;SDS011;56625;54.322;18.582;2023-04-25T06:46:46;5.60;;;1.70;;
69434;SDS011;56625;54.322;18.582;2023-04-25T06:49:14;5.90;;;2.00;;
69434;SDS011;56625;54.322;18.582;2023-04-25T06:51:43;6.40;;;2.30;;
69434;SDS011;56625;54.322;18.582;2023-04-25T06:54:10;6.80;;;2.30;;
69434;SDS011;56625;54.322;18.582;2023-04-25T06:56:38;6.30;;;1.20;;
69434;SDS011;56625;54.322;18.582;2023-04-25T06:59:06;6.40;;;2.00;;
69434;SDS011;56625;54.322;18.582;2023-04-25T07:01:34;7.20;;;1.70;;
69434;SDS011;56625;54.322;18.582;2023-04-25T07:04:02;6.30;;;2.10;;
69434;SDS011;56625;54.322;18.582;2023-04-25T07:06:31;6.40;;;2.00;;
69434;SDS011;56625;54.322;18.582;2023-04-25T07:08:59;5.50;;;2.20;;
69434;SDS011;56625;54.322;18.582;2023-04-25T07:11:26;6.10;;;2.00;;
69434;SDS011;56625;54.322;18.582;2023-04-25T07:13:54;5.60;;;1.30;;
69434;SDS011;56625;54.322;18.582;2023-04-25T07:16:22;4.70;;;1.70;;
69434;SDS011;56625;54.322;18.582;2023-04-25T07:18:50;5.90;;;1.80;;
69434;SDS011;56625;54.322;18.582;2023-04-25T07:21:19;5.30;;;1.60;;
69434;SDS011;56625;54.322;18.582;2023-04-25T07:23:47;6.50;;;1.60;;
69434;SDS011;56625;54.322;18.582;2023-04-25T07:26:15;4.10;;;1.10;;
69434;SDS011;56625;54.322;18.582;2023-04-25T07:28:42;4.40;;;1.30;;
69434;SDS011;56625;54.322;18.582;2023-04-25T07:31:10;3.80;;;1.20;;
69434;SDS011;56625;54.322;18.582;2023-04-25T07:33:38;4.60;;;1.50;;
69434;SDS011;56625;54.322;18.582;2023-04-25T07:36:07;5.30;;;1.50;;
69434;SDS011;56625;54.322;18.582;2023-04-25T07:38:35;5.50;;;1.40;;
69434;SDS011;56625;54.322;18.582;2023-04-25T07:41:03;4.10;;;1.40;;
69434;SDS011;56625;54.322;18.582;2023-04-25T07:43:31;3.20;;;0.80;;
69434;SDS011;56625;54.322;18.582;2023-04-25T07:45:59;6.20;;;1.40;;
69434;SDS011;56625;54.322;18.582;2023-04-25T07:48:27;4.90;;;1.20;;
69434;SDS011;56625;54.322;18.582;2023-04-25T07:50:54;5.40;;;1.60;;
69434;SDS011;56625;54.322;18.582;2023-04-25T07:53:21;5.30;;;1.30;;
69434;SDS011;56625;54.322;18.582;2023-04-25T07:55:50;6.30;;;1.40;;
69434;SDS011;56625;54.322;18.582;2023-04-25T07:58:18;4.30;;;1.10;;
69434;SDS011;56625;54.322;18.582;2023-04-25T08:00:49;6.90;;;1.30;;
69434;SDS011;56625;54.322;18.582;2023-04-25T08:03:17;4.40;;;1.10;;
69434;SDS011;56625;54.322;18.582;2023-04-25T08:05:45;6.30;;;1.30;;
69434;SDS011;56625;54.322;18.582;2023-04-25T08:08:14;4.30;;;1.00;;
69434;SDS011;56625;54.322;18.582;2023-04-25T08:10:42;4.90;;;1.30;;
69434;SDS011;56625;54.322;18.582;2023-04-25T08:13:09;5.70;;;1.30;;
69434;SDS011;56625;54.322;18.582;2023-04-25T08:15:37;4.90;;;1.10;;
69434;SDS011;56625;54.322;18.582;2023-04-25T08:18:05;4.90;;;1.30;;
69434;SDS011;56625;54.322;18.582;2023-04-25T08:20:33;4.80;;;1.10;;
69434;SDS011;56625;54.322;18.582;2023-04-25T08:23:01;4.50;;;1.00;;
69434;SDS011;56625;54.322;18.582;2023-04-25T08:25:29;4.60;;;0.90;;
69434;SDS011;56625;54.322;18.582;2023-04-25T08:27:57;7.30;;;1.10;;
69434;SDS011;56625;54.322;18.582;2023-04-25T08:30:27;4.80;;;1.00;;
69434;SDS011;56625;54.322;18.582;2023-04-25T08:32:54;3.20;;;0.70;;
69434;SDS011;56625;54.322;18.582;2023-04-25T08:35:22;3.90;;;0.90;;
69434;SDS011;56625;54.322;18.582;2023-04-25T08:37:50;5.00;;;1.00;;
69434;SDS011;56625;54.322;18.582;2023-04-25T08:40:18;3.80;;;1.10;;
69434;SDS011;56625;54.322;18.582;2023-04-25T08:42:53;3.80;;;1.00;;
69434;SDS011;56625;54.322;18.582;2023-04-25T08:45:24;5.30;;;1.30;;
69434;SDS011;56625;54.322;18.582;2023-04-25T08:47:57;4.30;;;1.10;;
69434;SDS011;56625;54.322;18.582;2023-04-25T08:50:25;4.30;;;0.90;;
69434;SDS011;56625;54.322;18.582;2023-04-25T08:52:54;4.80;;;0.90;;
69434;SDS011;56625;54.322;18.582;2023-04-25T08:55:23;3.30;;;1.10;;
69434;SDS011;56625;54.322;18.582;2023-04-25T08:57:54;4.50;;;1.00;;
69434;SDS011;56625;54.322;18.582;2023-04-25T09:00:22;5.00;;;1.10;;
69434;SDS011;56625;54.322;18.582;2023-04-25T09:02:51;3.60;;;0.90;;
69434;SDS011;56625;54.322;18.582;2023-04-25T09:05:20;2.90;;;0.60;;
69434;SDS011;56625;54.322;18.582;2023-04-25T09:07:48;3.60;;;0.80;;
69434;SDS011;56625;54.322;18.582;2023-04-25T09:10:17;7.60;;;1.00;;
69434;SDS011;56625;54.322;18.582;2023-04-25T09:13:11;3.70;;;0.80;;
69434;SDS011;56625;54.322;18.582;2023-04-25T09:15:49;4.90;;;1.00;;
69434;SDS011;56625;54.322;18.582;2023-04-25T09:18:26;4.00;;;0.80;;
69434;SDS011;56625;54.322;18.582;2023-04-25T09:21:08;4.00;;;1.00;;
69434;SDS011;56625;54.322;18.582;2023-04-25T09:23:47;5.40;;;0.90;;
69434;SDS011;56625;54.322;18.582;2023-04-25T09:26:17;3.40;;;0.90;;
69434;SDS011;56625;54.322;18.582;2023-04-25T09:28:47;4.30;;;1.00;;
69434;SDS011;56625;54.322;18.582;2023-04-25T09:31:22;4.90;;;1.00;;
69434;SDS011;56625;54.322;18.582;2023-04-25T09:33:59;2.90;;;0.60;;
69434;SDS011;56625;54.322;18.582;2023-04-25T09:36:30;4.20;;;1.00;;
69434;SDS011;56625;54.322;18.582;2023-04-25T09:38:59;2.90;;;0.80;;
69434;SDS011;56625;54.322;18.582;2023-04-25T09:41:28;5.10;;;2.60;;
69434;SDS011;56625;54.322;18.582;2023-04-25T09:43:57;3.40;;;0.90;;
69434;SDS011;56625;54.322;18.582;2023-04-25T09:46:35;4.50;;;0.90;;
69434;SDS011;56625;54.322;18.582;2023-04-25T09:49:07;3.70;;;0.90;;
69434;SDS011;56625;54.322;18.582;2023-04-25T09:51:35;4.00;;;0.70;;
69434;SDS011;56625;54.322;18.582;2023-04-25T09:54:03;4.80;;;0.90;;
69434;SDS011;56625;54.322;18.582;2023-04-25T09:56:35;3.30;;;1.00;;
69434;SDS011;56625;54.322;18.582;2023-04-25T09:59:05;2.70;;;0.70;;
69434;SDS011;56625;54.322;18.582;2023-04-25T10:01:34;2.90;;;0.70;;
69434;SDS011;56625;54.322;18.582;2023-04-25T10:04:10;4.10;;;0.90;;
69434;SDS011;56625;54.322;18.582;2023-04-25T10:06:42;3.20;;;0.90;;
69434;SDS011;56625;54.322;18.582;2023-04-25T10:09:12;3.80;;;1.00;;
69434;SDS011;56625;54.322;18.582;2023-04-25T10:11:42;2.90;;;0.60;;
69434;SDS011;56625;54.322;18.582;2023-04-25T10:14:12;6.20;;;1.10;;
69434;SDS011;56625;54.322;18.582;2023-04-25T10:16:41;4.30;;;1.00;;
69434;SDS011;56625;54.322;18.582;2023-04-25T10:19:10;4.90;;;1.10;;
69434;SDS011;56625;54.322;18.582;2023-04-25T10:22:17;4.80;;;1.20;;
69434;SDS011;56625;54.322;18.582;2023-04-25T10:24:50;4.00;;;1.00;;
69434;SDS011;56625;54.322;18.582;2023-04-25T10:27:19;4.10;;;1.00;;
69434;SDS011;56625;54.322;18.582;2023-04-25T10:30:04;4.10;;;1.00;;
69434;SDS011;56625;54.322;18.582;2023-04-25T10:32:36;3.90;;;0.80;;
69434;SDS011;56625;54.322;18.582;2023-04-25T10:35:16;3.20;;;0.90;;
69434;SDS011;56625;54.322;18.582;2023-04-25T10:38:05;4.70;;;1.00;;
69434;SDS011;56625;54.322;18.582;2023-04-25T10:40:37;3.50;;;0.80;;
69434;SDS011;56625;54.322;18.582;2023-04-25T10:43:40;2.80;;;0.70;;
69434;SDS011;56625;54.322;18.582;2023-04-25T10:46:21;4.00;;;0.90;;
69434;SDS011;56625;54.322;18.582;2023-04-25T10:48:53;3.70;;;0.80;;
69434;SDS011;56625;54.322;18.582;2023-04-25T10:51:24;2.20;;;0.50;;
69434;SDS011;56625;54.322;18.582;2023-04-25T10:54:01;3.70;;;1.00;;
69434;SDS011;56625;54.322;18.582;2023-04-25T10:56:32;5.00;;;1.20;;
69434;SDS011;56625;54.322;18.582;2023-04-25T10:59:11;4.70;;;0.80;;
69434;SDS011;56625;54.322;18.582;2023-04-25T11:01:52;3.80;;;0.90;;
69434;SDS011;56625;54.322;18.582;2023-04-25T11:04:29;3.80;;;0.80;;
69434;SDS011;56625;54.322;18.582;2023-04-25T11:09:39;3.10;;;0.70;;
69434;SDS011;56625;54.322;18.582;2023-04-25T11:12:09;5.10;;;1.10;;
69434;SDS011;56625;54.322;18.582;2023-04-25T11:14:39;3.70;;;1.00;;
69434;SDS011;56625;54.322;18.582;2023-04-25T11:17:12;3.50;;;1.00;;
69434;SDS011;56625;54.322;18.582;2023-04-25T11:19:41;5.70;;;1.20;;
69434;SDS011;56625;54.322;18.582;2023-04-25T11:22:10;3.60;;;1.00;;
69434;SDS011;56625;54.322;18.582;2023-04-25T11:24:38;5.40;;;1.20;;
69434;SDS011;56625;54.322;18.582;2023-04-25T11:27:06;3.00;;;0.70;;
69434;SDS011;56625;54.322;18.582;2023-04-25T11:29:34;5.80;;;1.20;;
69434;SDS011;56625;54.322;18.582;2023-04-25T11:32:02;4.50;;;1.10;;
69434;SDS011;56625;54.322;18.582;2023-04-25T11:34:32;4.20;;;1.00;;
69434;SDS011;56625;54.322;18.582;2023-04-25T11:37:02;3.80;;;0.80;;
69434;SDS011;56625;54.322;18.582;2023-04-25T11:39:31;4.80;;;1.20;;
69434;SDS011;56625;54.322;18.582;2023-04-25T11:41:59;4.30;;;1.10;;
69434;SDS011;56625;54.322;18.582;2023-04-25T11:44:35;4.40;;;1.00;;
69434;SDS011;56625;54.322;18.582;2023-04-25T11:47:05;5.00;;;0.90;;
69434;SDS011;56625;54.322;18.582;2023-04-25T11:49:32;3.70;;;1.00;;
69434;SDS011;56625;54.322;18.582;2023-04-25T11:52:01;3.80;;;1.10;;
69434;SDS011;56625;54.322;18.582;2023-04-25T11:54:29;4.20;;;1.10;;
69434;SDS011;56625;54.322;18.582;2023-04-25T11:56:57;5.00;;;1.50;;
69434;SDS011;56625;54.322;18.582;2023-04-25T11:59:25;5.20;;;1.40;;
69434;SDS011;56625;54.322;18.582;2023-04-25T12:01:54;6.20;;;1.30;;
69434;SDS011;56625;54.322;18.582;2023-04-25T12:04:23;3.80;;;1.00;;
69434;SDS011;56625;54.322;18.582;2023-04-25T12:06:54;4.30;;;0.80;;
69434;SDS011;56625;54.322;18.582;2023-04-25T12:09:30;4.10;;;0.90;;
69434;SDS011;56625;54.322;18.582;2023-04-25T12:12:00;4.20;;;1.00;;
69434;SDS011;56625;54.322;18.582;2023-04-25T12:14:33;5.00;;;1.00;;
69434;SDS011;56625;54.322;18.582;2023-04-25T12:17:04;5.40;;;1.00;;
69434;SDS011;56625;54.322;18.582;2023-04-25T12:19:37;6.00;;;1.20;;
69434;SDS011;56625;54.322;18.582;2023-04-25T12:22:22;5.40;;;1.00;;
69434;SDS011;56625;54.322;18.582;2023-04-25T12:24:51;4.20;;;0.90;;
69434;SDS011;56625;54.322;18.582;2023-04-25T12:27:21;5.00;;;1.10;;
69434;SDS011;56625;54.322;18.582;2023-04-25T12:29:55;4.60;;;0.90;;
69434;SDS011;56625;54.322;18.582;2023-04-25T12:32:24;5.30;;;1.30;;
69434;SDS011;56625;54.322;18.582;2023-04-25T12:34:53;5.30;;;1.10;;
69434;SDS011;56625;54.322;18.582;2023-04-25T12:37:22;5.40;;;1.20;;
69434;SDS011;56625;54.322;18.582;2023-04-25T12:39:50;5.90;;;1.20;;
69434;SDS011;56625;54.322;18.582;2023-04-25T12:42:18;7.50;;;1.30;;
69434;SDS011;56625;54.322;18.582;2023-04-25T12:44:46;5.60;;;1.30;;
69434;SDS011;56625;54.322;18.582;2023-04-25T12:47:14;5.00;;;1.40;;
69434;SDS011;56625;54.322;18.582;2023-04-25T12:49:42;5.40;;;1.20;;
69434;SDS011;56625;54.322;18.582;2023-04-25T12:52:10;5.20;;;1.10;;
69434;SDS011;56625;54.322;18.582;2023-04-25T12:54:38;7.60;;;1.30;;
69434;SDS011;56625;54.322;18.582;2023-04-25T12:57:06;5.70;;;1.20;;
69434;SDS011;56625;54.322;18.582;2023-04-25T12:59:34;4.80;;;1.50;;
69434;SDS011;56625;54.322;18.582;2023-04-25T13:02:02;5.70;;;1.20;;
69434;SDS011;56625;54.322;18.582;2023-04-25T13:04:30;5.60;;;1.60;;
69434;SDS011;56625;54.322;18.582;2023-04-25T13:06:58;8.90;;;1.90;;
69434;SDS011;56625;54.322;18.582;2023-04-25T13:09:26;6.60;;;1.60;;
69434;SDS011;56625;54.322;18.582;2023-04-25T13:11:54;8.60;;;1.70;;
69434;SDS011;56625;54.322;18.582;2023-04-25T13:14:25;5.70;;;1.70;;
69434;SDS011;56625;54.322;18.582;2023-04-25T13:16:53;6.50;;;2.20;;
69434;SDS011;56625;54.322;18.582;2023-04-25T13:19:22;5.70;;;1.70;;
69434;SDS011;56625;54.322;18.582;2023-04-25T13:21:49;7.90;;;1.60;;
69434;SDS011;56625;54.322;18.582;2023-04-25T13:24:18;6.40;;;1.60;;
69434;SDS011;56625;54.322;18.582;2023-04-25T13:26:46;6.10;;;1.50;;
69434;SDS011;56625;54.322;18.582;2023-04-25T13:29:14;7.80;;;2.00;;
69434;SDS011;56625;54.322;18.582;2023-04-25T13:31:41;7.10;;;1.90;;
69434;SDS011;56625;54.322;18.582;2023-04-25T13:34:09;7.10;;;1.80;;
69434;SDS011;56625;54.322;18.582;2023-04-25T13:36:40;7.10;;;1.70;;
69434;SDS011;56625;54.322;18.582;2023-04-25T13:39:08;8.20;;;2.10;;
69434;SDS011;56625;54.322;18.582;2023-04-25T13:41:36;4.30;;;1.40;;
69434;SDS011;56625;54.322;18.582;2023-04-25T13:44:04;8.20;;;2.00;;
69434;SDS011;56625;54.322;18.582;2023-04-25T13:46:32;6.90;;;2.00;;
69434;SDS011;56625;54.322;18.582;2023-04-25T13:49:13;7.70;;;2.10;;
69434;SDS011;56625;54.322;18.582;2023-04-25T13:51:41;8.50;;;1.90;;
69434;SDS011;56625;54.322;18.582;2023-04-25T13:54:10;6.20;;;1.90;;
69434;SDS011;56625;54.322;18.582;2023-04-25T13:56:38;8.00;;;2.00;;
69434;SDS011;56625;54.322;18.582;2023-04-25T13:59:06;8.80;;;1.80;;
69434;SDS011;56625;54.322;18.582;2023-04-25T14:01:33;8.00;;;2.00;;
69434;SDS011;56625;54.322;18.582;2023-04-25T14:04:03;6.90;;;2.10;;
69434;SDS011;56625;54.322;18.582;2023-04-25T14:06:32;6.30;;;2.00;;
69434;SDS011;56625;54.322;18.582;2023-04-25T14:09:01;7.50;;;2.00;;
69434;SDS011;56625;54.322;18.582;2023-04-25T14:11:32;7.60;;;1.80;;
69434;SDS011;56625;54.322;18.582;2023-04-25T14:13:59;5.70;;;2.00;;
69434;SDS011;56625;54.322;18.582;2023-04-25T14:16:30;6.50;;;1.90;;
69434;SDS011;56625;54.322;18.582;2023-04-25T14:18:59;6.60;;;1.90;;
69434;SDS011;56625;54.322;18.582;2023-04-25T14:21:27;8.20;;;2.20;;
69434;SDS011;56625;54.322;18.582;2023-04-25T14:23:55;7.20;;;1.70;;
69434;SDS011;56625;54.322;18.582;2023-04-25T14:26:24;7.80;;;2.00;;
69434;SDS011;56625;54.322;18.582;2023-04-25T14:28:52;6.30;;;1.70;;
69434;SDS011;56625;54.322;18.582;2023-04-25T14:31:20;7.20;;;1.90;;
69434;SDS011;56625;54.322;18.582;2023-04-25T14:33:48;6.70;;;2.00;;
69434;SDS011;56625;54.322;18.582;2023-04-25T14:36:17;8.20;;;1.80;;
69434;SDS011;56625;54.322;18.582;2023-04-25T14:38:45;8.20;;;1.80;;
69434;SDS011;56625;54.322;18.582;2023-04-25T14:41:16;8.30;;;1.40;;
69434;SDS011;56625;54.322;18.582;2023-04-25T14:43:44;8.20;;;1.50;;
69434;SDS011;56625;54.322;18.582;2023-04-25T14:46:12;6.80;;;1.30;;
69434;SDS011;56625;54.322;18.582;2023-04-25T14:48:40;8.60;;;1.80;;